Photometre #649[NE_1.6_Dp] Lille AOT

File : 20220924_649.hum

24/09/2022,06:32:39,TEMP=14.9,BA=5.64,STAT.h
24/09/2022,06:36:52,TEMP=12.9,BA=5.64,STAT.A=8.5,ExtBa=13.08
24/09/2022,06:41:39,TEMP=13.0,BA=5.64,STAT.A=8.5,ExtBa=12.99
24/09/2022,06:47:21,TEMP=13.0,BA=5.64,STAT.A=8.5,ExtBa=12.97
24/09/2022,06:54:14,TEMP=13.1,BA=5.64,STAT.A=8.5,ExtBa=12.95
24/09/2022,07:02:46,TEMP=13.1,BA=5.64,STAT.A=8.5,ExtBa=12.95
24/09/2022,07:13:13,TEMP=13.4,BA=5.64,STAT.h
24/09/2022,07:18:47,TEMP=13.3,BA=5.64,STAT.A=8.5,ExtBa=13.00
24/09/2022,07:24:36,TEMP=13.4,BA=5.60,STAT.A=8.5,ExtBa=13.03
24/09/2022,07:31:12,TEMP=13.4,BA=5.64,STAT.A=8.5,ExtBa=13.07
24/09/2022,07:38:48,TEMP=13.4,BA=5.64,STAT.A=8.5,ExtBa=13.06
24/09/2022,07:47:13,TEMP=13.7,BA=5.60,STAT.h
24/09/2022,07:57:29,TEMP=13.7,BA=5.64,STAT.h
24/09/2022,08:09:44,TEMP=13.7,BA=5.64,STAT.h
24/09/2022,08:25:04,TEMP=13.7,BA=5.64,STAT.A=9.0,ExtBa=13.14
24/09/2022,08:26:05,TEMP=13.7,BA=5.64,STAT.h
24/09/2022,08:40:10,TEMP=13.9,BA=5.60,STAT.F,ExtBa=12.99
24/09/2022,08:55:09,TEMP=14.2,BA=5.64,STAT.D=9.0,ExtBa=13.02
24/09/2022,09:10:09,TEMP=15.4,BA=5.56,STAT.D=9.0,ExtBa=13.07
24/09/2022,09:25:09,TEMP=15.3,BA=5.64,STAT.D=9.0,ExtBa=13.09
24/09/2022,09:40:11,TEMP=15.5,BA=5.60,STAT.F,ExtBa=13.04
24/09/2022,09:55:09,TEMP=15.4,BA=5.64,STAT.D=9.0,ExtBa=13.12
24/09/2022,10:09:49,TEMP=15.7,BA=5.64,STAT.h
24/09/2022,10:24:49,TEMP=15.7,BA=5.64,STAT.h
24/09/2022,10:39:49,TEMP=15.7,BA=5.60,STAT.h
24/09/2022,10:54:49,TEMP=15.7,BA=5.60,STAT.h
24/09/2022,11:10:05,TEMP=15.7,BA=5.56,STAT.h
24/09/2022,11:24:49,TEMP=15.7,BA=5.64,STAT.h
24/09/2022,11:40:11,TEMP=15.6,BA=5.56,STAT.F,ExtBa=13.17
24/09/2022,11:55:10,TEMP=15.8,BA=5.60,STAT.D=9.0,ExtBa=13.15
24/09/2022,12:10:10,TEMP=16.1,BA=5.56,STAT.D=9.0,ExtBa=13.15
24/09/2022,12:25:10,TEMP=17.5,BA=5.60,STAT.D=9.0,ExtBa=13.14
24/09/2022,12:40:12,TEMP=18.1,BA=5.56,STAT.F,ExtBa=13.12
24/09/2022,12:55:10,TEMP=19.5,BA=5.52,STAT.D=9.0,ExtBa=12.14
24/09/2022,13:10:10,TEMP=19.2,BA=5.56,STAT.D=9.0,ExtBa=13.02
24/09/2022,13:25:10,TEMP=18.9,BA=5.60,STAT.D=9.5,ExtBa=12.96
24/09/2022,13:40:11,TEMP=20.1,BA=5.56,STAT.F,ExtBa=12.91
24/09/2022,13:55:10,TEMP=19.9,BA=5.60,STAT.D=9.5,ExtBa=12.94
24/09/2022,14:10:10,TEMP=20.1,BA=5.56,STAT.D=9.5,ExtBa=12.90
24/09/2022,14:25:10,TEMP=21.5,BA=5.60,STAT.D=9.5,ExtBa=12.91
24/09/2022,14:40:11,TEMP=22.2,BA=5.56,STAT.F,ExtBa=12.88
24/09/2022,14:55:17,TEMP=20.1,BA=5.60,STAT.A=9.5,ExtBa=13.06
24/09/2022,15:10:16,TEMP=19.7,BA=5.60,STAT.A=9.5,ExtBa=13.04
24/09/2022,15:22:31,TEMP=18.5,BA=5.60,STAT.A=9.5,ExtBa=13.04
24/09/2022,15:32:47,TEMP=17.9,BA=5.60,STAT.C=9.5,ExtBa=13.04
24/09/2022,15:41:33,TEMP=17.6,BA=5.60,STAT.A=9.5,ExtBa=13.03
24/09/2022,15:49:07,TEMP=17.3,BA=5.60,STAT.A=9.5,ExtBa=13.03
24/09/2022,15:55:44,TEMP=17.1,BA=5.52,STAT.A=9.5,ExtBa=13.02
24/09/2022,16:01:35,TEMP=16.9,BA=5.60,STAT.A=9.5,ExtBa=13.00
24/09/2022,16:06:47,TEMP=16.9,BA=5.60,STAT.B=9.0,ExtBa=12.98
24/09/2022,16:17:36,TEMP=17.3,BA=5.48,STAT.A=9.0,ExtBa=12.42
24/09/2022,16:26:08,TEMP=16.7,BA=5.60,STAT.A=9.5,ExtBa=12.71
24/09/2022,16:33:01,TEMP=16.7,BA=5.60,STAT.A=9.0,ExtBa=12.75
24/09/2022,16:38:42,TEMP=17.2,BA=5.60,STAT.A=9.0,ExtBa=12.72
24/09/2022,16:43:29,TEMP=17.6,BA=5.52,STAT.A=9.0,ExtBa=12.67
24/09/2022,16:47:34,TEMP=17.8,BA=5.52,STAT.A=9.0,ExtBa=12.65